Terminal Aerodrome Forecast
Issued by NWS

Home | Current Version | Previous Version | Text Only | Print | Product List | Glossary On
Versions: 1 2 3 4 5 6 7 8 9 10 11 12 13 14 15 16 17 18 19 20 21
346
FTAK31 PAJN 110305 AAA
TAFAWG
TAF AMD
PAWG 110305Z 1103/1124 14010G18KT P6SM -RA FEW005 BKN050 OVC080
     FM110600 13010G18KT 4SM -RA BR OVC025 WS020/14030KT
     FM111200 14010KT P6SM -SHRA OVC040=

USA.gov is the U.S. government's official web portal to all federal, state and local government web resources and services.